首页
METAR-TAF:

METAR-TAF

机场 :

Wink, 得克萨斯州, 美国

纬度: 31-46-47N, 经度: 103-12-05W, 海拔: 860米

当前天气观测

该预报发布于31分钟前的15:53 UTC
静风
温度 6°C
湿度 87%
气压 1022 hPa
能見度: 16.1公里
天空无云

METAR: KINK 121553Z AUTO 00000KT 10SM CLR 06/04 A3018 RMK AO2 SLP210 T00610044

时间: 10:24 (16:24 UTC)

预报

该预报发布于1小时和27分钟前的14:57 UTC
预报有效从12日的 15点(UTC)到 13日的 12点(UTC)
风速4节,风向东南
能見度: 10公里
少量云层高于20000英尺
从 12日的 1600点(UTC)
风速8节,风向西
能見度: 10公里
少量云层高于20000英尺

TAF: KINK 121457Z 1215/1312 14004KT P6SM FEW200 FM121600 26008KT P6SM FEW200

超过4000个机场的气象观测和天气预报(METAR&TAF报告)。

可查询的气象台以黄色和红色小点在地图上表示。

将鼠标移到小点上方,可查看气象台名称。

然后点击查看天气观测和预报。

如需切换地图:点击带黑十字的绿色按钮放大地图;点击带横线的绿色按钮缩小地图;或者点击绿色箭头查看邻近地区的地图。


METAR-TAF: